Terminal Aerodrome Forecast
Issued by NWS

Home | Current Version | Previous Version | Text Only | Print | Product List | Glossary On
Versions: 1 2 3 4 5 6 7 8 9 10 11 12 13 14 15 16 17 18
000
FTUS43 KICT 031126
TAFCNU
TAF
KCNU 031126Z 0312/0412 18017G25KT 2SM -DZ BR OVC003
     FM031500 20018G26KT 5SM BR OVC012
     FM031800 22020G28KT P6SM BKN035
     FM032300 36017G25KT P6SM SCT035 OVC250=

USA.gov is the U.S. government's official web portal to all federal, state and local government web resources and services.